Time;durP1;ratioP1;P1;durP2;ratioP2;P2;SDS_P1;SDS_P2;PMS_P1;PMS_P2;Temp;Humidity;BMP_temperature;BMP_pressure;BME280_temperature;BME280_humidity;BME280_pressure;Samples;Min_cycle;Max_cycle;Signal;HPM_P1;HPM_P2
2021/11/11 00:02:59;;;;;;;210.02;19.85;;;;;;;1.81;68.57;100716.25;10382818;28;20041;-62
2021/11/11 00:08:01;;;;;;;303.23;28.00;;;;;;;1.77;68.83;100724.91;10384247;28;20093;-62
2021/11/11 00:13:03;;;;;;;190.95;18.45;;;;;;;1.75;68.79;100727.50;10390550;28;20145;-62
2021/11/11 00:18:05;;;;;;;140.25;18.55;;;;;;;1.85;69.03;100725.66;10390817;28;20068;-62
2021/11/11 00:23:07;;;;;;;104.28;17.88;;;;;;;1.94;68.61;100718.69;10391093;28;21011;-62
2021/11/11 00:28:08;;;;;;;180.90;18.92;;;;;;;1.88;68.83;100723.06;10390354;28;20053;-62
2021/11/11 00:33:10;;;;;;;160.55;17.92;;;;;;;1.94;68.62;100720.41;10389694;28;20088;-62
2021/11/11 00:38:12;;;;;;;116.28;17.05;;;;;;;1.89;68.85;100722.22;10387246;28;20048;-62
2021/11/11 00:43:14;;;;;;;94.13;16.08;;;;;;;1.92;68.93;100725.59;10388934;28;20642;-62
2021/11/11 00:48:15;;;;;;;112.93;16.88;;;;;;;1.87;69.00;100714.47;10389340;28;20519;-62
2021/11/11 00:53:17;;;;;;;98.95;15.85;;;;;;;1.99;68.74;100713.50;10389685;28;20056;-62
2021/11/11 00:58:19;;;;;;;145.88;17.83;;;;;;;1.97;68.64;100710.06;10389223;28;20417;-62
2021/11/11 01:03:25;;;;;;;87.70;17.60;;;;;;;1.92;68.69;100717.00;10388428;28;20049;-62
2021/11/11 01:08:28;;;;;;;116.05;17.80;;;;;;;1.98;68.86;100729.81;10390011;28;20049;-62
2021/11/11 01:13:30;;;;;;;162.15;19.23;;;;;;;2.03;68.62;100731.47;10388711;28;20351;-62
2021/11/11 01:18:32;;;;;;;270.38;24.80;;;;;;;2.17;68.50;100715.84;10388399;28;20053;-62
2021/11/11 01:23:35;;;;;;;163.60;18.42;;;;;;;1.98;68.46;100714.34;10387857;28;20049;-62
2021/11/11 01:28:37;;;;;;;155.38;17.70;;;;;;;2.00;68.61;100710.03;10387600;28;20049;-62
2021/11/11 01:33:39;;;;;;;119.13;17.98;;;;;;;1.96;68.40;100708.34;10387510;28;20051;-62
2021/11/11 01:38:41;;;;;;;208.25;22.63;;;;;;;1.91;68.66;100716.13;10385244;28;20284;-62
2021/11/11 01:43:42;;;;;;;262.70;19.50;;;;;;;2.01;68.82;100714.31;10386108;28;20060;-62
2021/11/11 01:48:44;;;;;;;242.82;19.85;;;;;;;2.03;68.78;100705.66;10386662;28;20186;-62
2021/11/11 01:53:46;;;;;;;196.68;19.58;;;;;;;1.95;68.70;100706.66;10385002;28;20049;-62
2021/11/11 01:58:49;;;;;;;199.35;19.95;;;;;;;1.97;68.76;100700.59;10386344;28;20511;-62
2021/11/11 02:03:54;;;;;;;318.73;24.40;;;;;;;1.92;68.82;100704.09;10386413;28;20057;-62
2021/11/11 02:08:56;;;;;;;328.40;26.70;;;;;;;1.92;68.37;100696.38;10386035;28;20421;-62
2021/11/11 02:13:58;;;;;;;530.63;30.65;;;;;;;1.63;68.72;100698.44;10385726;28;20053;-62
2021/11/11 02:19:00;;;;;;;647.88;27.65;;;;;;;1.49;68.87;100700.31;10386711;28;20197;-62
2021/11/11 02:24:02;;;;;;;598.88;36.45;;;;;;;1.38;69.21;100693.53;10385594;28;20316;-62
2021/11/11 02:29:04;;;;;;;723.03;27.98;;;;;;;1.33;69.26;100699.63;10385334;28;20420;-62
2021/11/11 02:34:05;;;;;;;470.55;23.52;;;;;;;1.32;69.48;100693.59;10385355;28;20544;-63
2021/11/11 02:39:07;;;;;;;557.03;29.90;;;;;;;1.47;69.58;100671.97;10384645;28;20424;-62
2021/11/11 02:44:10;;;;;;;787.58;43.35;;;;;;;1.55;69.22;100684.78;10385432;28;20573;-62
2021/11/11 02:49:12;;;;;;;499.65;25.80;;;;;;;1.42;69.55;100678.06;10385727;28;20482;-62
2021/11/11 02:54:13;;;;;;;571.72;37.65;;;;;;;1.29;69.85;100683.34;10384193;28;20136;-62
2021/11/11 02:59:15;;;;;;;263.88;24.35;;;;;;;1.51;69.96;100672.78;10384644;28;20049;-62
2021/11/11 03:04:17;;;;;;;85.57;16.95;;;;;;;1.72;69.53;100663.09;10389434;28;20128;-62
2021/11/11 03:09:18;;;;;;;182.23;19.50;;;;;;;1.66;69.55;100662.31;10391679;28;20060;-62
2021/11/11 03:14:20;;;;;;;416.02;33.90;;;;;;;1.53;69.57;100673.63;10391675;28;20076;-62
2021/11/11 03:19:22;;;;;;;290.92;23.77;;;;;;;1.48;69.62;100680.56;10392076;28;20052;-62
2021/11/11 03:24:24;;;;;;;532.03;37.60;;;;;;;1.60;69.43;100688.16;10391466;28;20528;-62
2021/11/11 03:29:25;;;;;;;252.68;26.42;;;;;;;1.64;69.45;100695.00;10390432;28;20049;-62
2021/11/11 03:34:27;;;;;;;280.42;21.02;;;;;;;1.59;69.46;100697.63;10391732;28;20052;-62
2021/11/11 03:39:30;;;;;;;221.57;23.08;;;;;;;1.70;69.45;100694.94;10390732;28;20132;-62
2021/11/11 03:44:31;;;;;;;189.23;24.98;;;;;;;1.69;69.19;100708.66;10396889;28;20056;-62
2021/11/11 03:49:34;;;;;;;218.18;26.23;;;;;;;1.73;69.16;100702.59;10398490;28;20053;-62
2021/11/11 03:54:37;;;;;;;118.13;17.63;;;;;;;1.66;69.37;100719.91;10399042;28;20099;-63
2021/11/11 03:59:39;;;;;;;191.75;18.40;;;;;;;1.66;69.28;100714.75;10398780;28;20454;-62
2021/11/11 04:04:42;;;;;;;139.00;21.15;;;;;;;1.64;69.56;100726.78;10395231;28;20041;-62
2021/11/11 04:09:43;;;;;;;214.35;22.92;;;;;;;1.72;69.51;100711.22;10393050;28;20585;-62
2021/11/11 04:14:45;;;;;;;454.27;33.97;;;;;;;1.77;69.26;100712.00;10390881;28;20059;-62
2021/11/11 04:19:47;;;;;;;302.80;27.38;;;;;;;1.66;69.10;100703.56;10391395;28;20049;-62
2021/11/11 04:24:50;;;;;;;192.68;20.30;;;;;;;1.65;69.30;100696.69;10390683;28;20056;-62
2021/11/11 04:30:06;;;;;;;436.70;31.60;;;;;;;1.74;69.30;100688.84;10391241;28;20107;-62
2021/11/11 04:35:09;;;;;;;312.10;20.83;;;;;;;1.72;69.29;100694.03;10391031;28;20089;-62
2021/11/11 04:40:45;;;;;;;331.35;25.52;;;;;;;1.70;69.51;100695.78;10390673;28;20053;-63
2021/11/11 05:01:31;;;;;;;249.05;17.52;;;;;;;1.67;69.39;100713.00;10389665;28;20479;-62
2021/11/11 05:06:33;;;;;;;324.48;21.45;;;;;;;1.64;69.29;100718.19;10390190;28;20045;-62
2021/11/11 05:11:35;;;;;;;176.73;16.92;;;;;;;1.56;69.11;100722.59;10389129;28;20055;-61
2021/11/11 05:16:37;;;;;;;74.20;13.80;;;;;;;1.51;69.02;100724.34;10386862;28;20057;-62
2021/11/11 05:21:38;;;;;;;104.65;15.02;;;;;;;1.62;69.03;100707.91;10388960;28;20424;-62
2021/11/11 05:26:40;;;;;;;159.55;25.85;;;;;;;1.70;68.80;100700.94;10388835;28;20053;-62
2021/11/11 05:31:43;;;;;;;258.98;49.22;;;;;;;1.69;68.60;100699.22;10388499;28;20318;-62
2021/11/11 05:36:45;;;;;;;275.27;23.60;;;;;;;1.61;68.84;100713.94;10388122;28;20387;-62
2021/11/11 05:41:47;;;;;;;472.75;24.08;;;;;;;1.70;68.63;100715.56;10387781;28;20063;-61
2021/11/11 05:46:49;;;;;;;469.77;22.13;;;;;;;1.70;68.31;100715.56;10387454;28;20396;-62
2021/11/11 05:51:52;;;;;;;511.85;28.25;;;;;;;1.43;68.40;100721.00;10386933;28;20450;-62
2021/11/11 05:56:54;;;;;;;557.60;25.02;;;;;;;1.18;68.62;100723.81;10387241;28;20405;-62
2021/11/11 06:01:57;;;;;;;309.13;18.75;;;;;;;1.04;69.15;100717.06;10387370;28;20049;-62
2021/11/11 06:06:59;;;;;;;308.33;16.98;;;;;;;0.99;69.19;100716.28;10386255;28;20053;-62
2021/11/11 06:12:01;;;;;;;583.88;32.15;;;;;;;0.93;69.44;100731.78;10386932;28;20434;-61
2021/11/11 06:17:06;;;;;;;583.38;31.42;;;;;;;1.20;69.58;100726.38;10387166;28;20468;-62
2021/11/11 06:22:08;;;;;;;504.88;23.83;;;;;;;1.13;69.13;100722.16;10385868;28;20049;-62
2021/11/11 06:27:11;;;;;;;445.40;22.00;;;;;;;1.21;69.59;100728.94;10384783;28;20204;-61
2021/11/11 06:32:13;;;;;;;328.60;22.88;;;;;;;1.21;69.79;100730.66;10386675;28;20049;-62
2021/11/11 06:37:35;;;;;;;;;;;;;;;0.94;69.95;100739.47;10387420;28;20520;-62
2021/11/11 06:42:37;;;;;;;342.05;22.77;;;;;;;1.23;69.80;100747.81;10385294;28;19931;-62
2021/11/11 06:47:40;;;;;;;377.48;22.02;;;;;;;1.43;69.64;100757.06;10386291;28;20689;-62
2021/11/11 06:52:42;;;;;;;305.55;23.65;;;;;;;1.53;69.40;100763.84;10385523;28;20050;-62
2021/11/11 06:57:44;;;;;;;378.13;24.50;;;;;;;1.60;69.31;100770.66;10385570;28;20049;-62
2021/11/11 07:02:46;;;;;;;296.23;21.48;;;;;;;1.65;69.09;100777.47;10385285;28;20405;-62
2021/11/11 07:07:48;;;;;;;288.75;19.65;;;;;;;1.58;69.03;100782.72;10385392;28;20057;-62
2021/11/11 07:12:51;;;;;;;142.77;15.45;;;;;;;1.66;68.67;100793.81;10384159;28;20124;-63
2021/11/11 07:17:53;;;;;;;352.80;19.25;;;;;;;1.75;68.49;100791.97;10385166;28;20049;-62
2021/11/11 07:22:59;;;;;;;256.00;19.63;;;;;;;1.69;68.41;100801.50;10383550;28;20539;-62
2021/11/11 07:28:01;;;;;;;279.63;21.33;;;;;;;1.57;68.48;100819.66;10384400;28;20577;-62
2021/11/11 07:33:03;;;;;;;408.95;24.08;;;;;;;1.77;68.68;100821.19;10384301;28;20136;-62
2021/11/11 07:38:05;;;;;;;427.70;27.45;;;;;;;1.71;68.61;100820.38;10383331;28;20049;-62
2021/11/11 07:43:07;;;;;;;259.70;17.27;;;;;;;1.70;68.61;100821.28;10384366;28;20046;-63
2021/11/11 07:48:09;;;;;;;130.93;15.30;;;;;;;1.63;68.89;100817.03;10384511;28;20045;-63
2021/11/11 07:53:11;;;;;;;365.08;24.25;;;;;;;1.79;68.68;100818.59;10382988;28;20063;-62
2021/11/11 07:58:13;;;;;;;278.98;20.27;;;;;;;1.91;68.65;100823.66;10373945;28;20052;-62
2021/11/11 08:03:15;;;;;;;275.38;18.38;;;;;;;2.03;68.28;100820.94;10377335;28;20438;-62
2021/11/11 08:08:17;;;;;;;292.48;17.70;;;;;;;2.06;68.25;100818.31;10382892;28;20376;-62
2021/11/11 08:13:19;;;;;;;242.50;16.77;;;;;;;2.12;67.90;100807.91;10381904;28;20053;-62
2021/11/11 08:18:21;;;;;;;247.63;18.60;;;;;;;2.18;67.93;100802.69;10382597;28;20041;-74
2021/11/11 08:23:23;;;;;;;231.15;17.80;;;;;;;2.11;68.21;100806.22;10381012;28;20132;-74
2021/11/11 08:28:25;;;;;;;158.95;16.20;;;;;;;2.17;68.23;100816.47;10381933;28;20315;-74
2021/11/11 08:33:26;;;;;;;346.92;19.77;;;;;;;2.26;67.87;100826.66;10390456;28;20116;-73
2021/11/11 08:38:29;;;;;;;297.13;16.58;;;;;;;2.39;67.92;100824.78;10385301;28;20572;-75
2021/11/11 08:43:31;;;;;;;554.55;28.63;;;;;;;2.56;67.26;100817.69;10379662;28;20049;-74
2021/11/11 08:48:33;;;;;;;236.88;16.88;;;;;;;2.54;67.76;100820.28;10383954;28;20231;-74
2021/11/11 08:53:35;;;;;;;361.58;19.95;;;;;;;2.48;67.44;100822.13;10388253;28;20053;-74
2021/11/11 08:58:38;;;;;;;421.55;22.45;;;;;;;2.58;67.59;100819.38;10383270;28;20055;-74
2021/11/11 09:03:40;;;;;;;364.90;22.45;;;;;;;2.27;67.44;100819.78;10386199;28;20064;-75
2021/11/11 09:08:42;;;;;;;213.57;18.02;;;;;;;2.37;67.61;100823.97;10387111;28;20748;-75
2021/11/11 09:13:46;;;;;;;447.30;20.50;;;;;;;2.23;67.76;100830.13;10386615;28;20053;-74
2021/11/11 09:18:48;;;;;;;421.38;21.25;;;;;;;2.34;67.23;100829.19;10387120;28;20132;-75
2021/11/11 09:23:50;;;;;;;256.33;18.77;;;;;;;2.32;67.63;100830.94;10386901;28;20136;-74
2021/11/11 09:28:52;;;;;;;145.95;15.30;;;;;;;2.61;67.49;100832.25;10386731;28;20053;-75
2021/11/11 09:33:54;;;;;;;232.20;16.95;;;;;;;2.80;67.18;100838.88;10382902;28;20046;-75
2021/11/11 09:38:57;;;;;;;319.38;23.52;;;;;;;2.81;66.35;100827.66;10385362;28;20045;-74
2021/11/11 09:43:59;;;;;;;91.00;13.50;;;;;;;2.67;66.80;100828.72;10375514;28;20422;-74
2021/11/11 09:49:02;;;;;;;109.90;15.52;;;;;;;2.93;66.77;100832.66;10385530;28;20350;-72
2021/11/11 09:54:21;;;;;;;128.32;15.55;;;;;;;2.68;67.08;100831.28;10386698;28;20073;-73
2021/11/11 09:59:23;;;;;;;120.35;16.45;;;;;;;2.71;67.56;100815.75;10385632;28;20142;-74
2021/11/11 10:04:26;;;;;;;77.25;16.25;;;;;;;2.98;67.34;100828.28;10383427;28;20127;-74
2021/11/11 10:09:28;;;;;;;110.57;16.13;;;;;;;3.16;67.16;100821.97;10386135;28;20596;-74
2021/11/11 10:14:36;;;;;;;81.88;15.80;;;;;;;3.07;66.95;100830.72;10386724;28;20092;-73
2021/11/11 10:19:45;;;;;;;127.38;16.85;;;;;;;3.27;66.83;100829.56;10385999;28;20049;-74
2021/11/11 10:25:01;;;;;;;77.82;16.48;;;;;;;3.30;66.36;100832.97;10386127;28;20129;-73
2021/11/11 10:30:09;;;;;;;199.55;20.38;;;;;;;3.37;66.20;100819.06;10384764;28;20100;-72
2021/11/11 10:35:28;;;;;;;209.77;19.67;;;;;;;3.42;66.45;100826.72;10381410;28;20084;-70
2021/11/11 10:40:37;;;;;;;199.98;20.15;;;;;;;3.59;65.72;100824.72;10383983;28;20132;-72
2021/11/11 10:45:41;;;;;;;41.65;15.30;;;;;;;3.71;66.68;100820.19;10383628;28;20172;-73
2021/11/11 10:50:47;;;;;;;34.42;13.75;;;;;;;3.77;66.57;100811.47;10384783;28;20088;-69
2021/11/11 10:55:51;;;;;;;65.03;16.85;;;;;;;3.90;66.25;100807.81;10382753;28;20410;-69
2021/11/11 11:01:00;;;;;;;39.67;17.08;;;;;;;4.08;66.31;100797.09;10383940;28;20134;-69
2021/11/11 11:06:06;;;;;;;33.20;15.98;;;;;;;4.21;65.87;100801.13;10381356;28;20045;-70
2021/11/11 11:11:21;;;;;;;57.65;16.63;;;;;;;4.32;65.71;100788.84;10384327;28;20049;-70
2021/11/11 11:16:34;;;;;;;24.73;14.02;;;;;;;4.38;65.70;100787.84;10383235;28;20521;-69
2021/11/11 11:21:44;;;;;;;25.38;14.25;;;;;;;4.42;64.91;100785.16;10384764;28;20049;-70
2021/11/11 11:26:49;;;;;;;21.20;13.37;;;;;;;4.53;65.21;100759.03;10382947;28;20057;-70
2021/11/11 11:37:08;;;;;;;25.55;16.13;;;;;;;4.72;64.79;100764.69;10384489;28;20085;-70
2021/11/11 11:42:16;;;;;;;24.85;15.38;;;;;;;4.70;64.67;100775.91;10382264;28;20492;-70
2021/11/11 11:52:27;;;;;;;24.67;16.45;;;;;;;4.70;64.77;100770.72;10384239;28;20135;-70
2021/11/11 12:08:13;;;;;;;28.13;16.98;;;;;;;4.98;64.63;100747.63;10389546;28;20057;-71
2021/11/11 12:39:46;;;;;;;60.03;19.13;;;;;;;4.43;64.59;100729.88;10387313;28;20544;-70
2021/11/11 12:45:09;;;;;;;46.20;19.83;;;;;;;4.63;64.92;100727.72;10381969;28;20050;-70
2021/11/11 12:50:38;;;;;;;34.50;18.75;;;;;;;4.69;63.77;100718.94;10389553;28;20085;-72
2021/11/11 12:55:40;;;;;;;29.63;17.88;;;;;;;4.69;64.74;100709.44;10387032;28;20140;-71
2021/11/11 13:00:52;;;;;;;35.30;20.10;;;;;;;4.92;64.67;100703.72;10388866;28;20057;-71
2021/11/11 13:06:01;;;;;;;29.05;17.67;;;;;;;5.00;64.88;100703.50;10387171;28;20544;-70
2021/11/11 13:11:05;;;;;;;31.40;18.17;;;;;;;5.05;64.37;100686.94;10388881;28;20068;-70
2021/11/11 13:16:17;;;;;;;27.15;17.25;;;;;;;5.02;64.73;100692.22;10388304;28;20132;-73
2021/11/11 13:21:33;;;;;;;26.50;17.20;;;;;;;5.03;65.05;100693.06;10388624;28;20049;-73
2021/11/11 14:04:50;;;;;;;25.63;17.40;;;;;;;5.25;65.13;100696.81;10385474;28;20084;-75
2021/11/11 15:14:09;;;;;;;38.70;21.38;;;;;;;4.67;66.07;100700.00;10364348;28;20060;-74
2021/11/11 16:29:40;;;;;;;368.53;29.77;;;;;;;3.50;68.51;100722.28;10391667;28;20059;-65
2021/11/11 16:34:42;;;;;;;198.82;26.25;;;;;;;3.59;68.85;100721.25;10391015;28;20500;-65
2021/11/11 16:40:07;;;;;;;158.45;25.38;;;;;;;3.65;69.19;100724.59;10391286;28;20061;-67
2021/11/11 16:45:09;;;;;;;108.57;24.73;;;;;;;3.82;68.72;100724.28;10390705;28;20059;-67
2021/11/11 16:50:11;;;;;;;322.63;29.48;;;;;;;3.83;68.59;100734.63;10390109;28;20053;-67
2021/11/11 16:55:13;;;;;;;436.45;36.42;;;;;;;3.84;68.25;100733.72;10391158;28;20042;-66
2021/11/11 17:00:17;;;;;;;474.48;35.58;;;;;;;3.88;68.56;100747.47;10389627;28;20049;-67
2021/11/11 17:05:22;;;;;;;297.00;30.42;;;;;;;3.85;68.52;100744.94;10389827;28;20049;-68
2021/11/11 17:10:26;;;;;;;231.27;28.10;;;;;;;3.87;68.78;100761.28;10390022;28;20057;-67
2021/11/11 17:15:30;;;;;;;157.63;25.58;;;;;;;3.81;68.93;100766.53;10387475;28;20133;-67
2021/11/11 17:20:32;;;;;;;150.43;23.65;;;;;;;3.82;69.10;100771.66;10384501;28;20056;-68
2021/11/11 17:25:39;;;;;;;208.68;28.48;;;;;;;3.85;68.84;100765.63;10388671;28;20450;-67
2021/11/11 17:30:50;;;;;;;179.20;22.92;;;;;;;3.85;69.02;100781.16;10387367;28;20071;-65
2021/11/11 17:35:52;;;;;;;319.13;26.52;;;;;;;3.95;68.67;100771.47;10385992;28;20140;-67
2021/11/11 17:40:55;;;;;;;247.10;23.52;;;;;;;3.86;68.64;100767.34;10385144;28;20064;-67
2021/11/11 17:46:12;;;;;;;140.07;20.80;;;;;;;3.83;68.38;100772.53;10386715;28;20056;-67
2021/11/11 17:51:38;;;;;;;86.47;17.15;;;;;;;3.75;68.69;100780.44;10386212;28;20147;-67
2021/11/11 17:56:45;;;;;;;223.13;19.38;;;;;;;3.66;68.67;100784.94;10387040;28;20056;-67
2021/11/11 18:01:48;;;;;;;189.35;21.92;;;;;;;3.52;68.71;100776.56;10385514;28;20049;-67
2021/11/11 18:06:59;;;;;;;100.80;19.58;;;;;;;3.61;68.95;100786.75;10384835;28;20328;-67
2021/11/11 18:12:05;;;;;;;120.43;27.77;;;;;;;3.66;68.82;100785.78;10382435;28;20516;-67
2021/11/11 18:17:07;;;;;;;75.13;21.08;;;;;;;3.70;68.68;100781.44;10386941;28;20515;-67
2021/11/11 18:22:08;;;;;;;80.30;18.85;;;;;;;3.59;68.82;100781.63;10385087;28;20143;-66
2021/11/11 18:27:10;;;;;;;111.97;20.58;;;;;;;3.56;68.75;100780.78;10386234;28;20042;-66
2021/11/11 18:32:13;;;;;;;191.43;24.10;;;;;;;3.52;68.54;100777.41;10380844;28;20061;-67
2021/11/11 18:37:22;;;;;;;184.82;19.33;;;;;;;3.35;68.92;100773.44;10384020;28;20049;-67
2021/11/11 18:42:24;;;;;;;212.75;20.65;;;;;;;3.27;68.99;100770.97;10378585;28;20049;-67
2021/11/11 18:47:39;;;;;;;98.00;17.48;;;;;;;3.26;69.59;100773.56;10384947;28;20045;-65
2021/11/11 18:52:41;;;;;;;266.67;24.10;;;;;;;3.33;69.09;100765.72;10380476;28;20053;-65
2021/11/11 18:57:43;;;;;;;297.67;25.80;;;;;;;3.46;69.23;100764.59;10384867;28;20056;-66
2021/11/11 19:02:47;;;;;;;121.82;19.83;;;;;;;3.62;68.99;100760.03;10382137;28;20075;-66
2021/11/11 19:08:09;;;;;;;316.77;28.00;;;;;;;3.63;68.96;100769.47;10385085;28;20151;-67
2021/11/11 19:13:36;;;;;;;320.58;33.85;;;;;;;3.64;69.08;100776.38;10378349;28;20196;-68
2021/11/11 19:18:39;;;;;;;208.85;27.98;;;;;;;3.62;69.31;100767.78;10385335;28;20063;-68
2021/11/11 19:23:46;;;;;;;366.23;36.15;;;;;;;3.83;68.87;100772.53;10384955;28;20204;-67
2021/11/11 19:28:48;;;;;;;376.10;33.85;;;;;;;3.88;68.67;100767.31;10381595;28;20053;-68
2021/11/11 19:33:57;;;;;;;326.67;33.33;;;;;;;3.95;68.43;100759.38;10380357;28;20195;-68
2021/11/11 19:44:45;;;;;;;248.23;31.70;;;;;;;3.61;68.80;100746.22;10384442;28;20133;-68
2021/11/11 20:00:47;;;;;;;426.48;37.15;;;;;;;3.81;68.90;100735.50;10384865;28;20050;-68
2021/11/11 20:52:47;;;;;;;301.27;25.95;;;;;;;2.78;69.87;100754.53;10389836;28;20474;-67
2021/11/11 20:57:57;;;;;;;588.10;35.22;;;;;;;2.70;69.95;100756.38;10383787;28;20597;-68
2021/11/11 21:03:03;;;;;;;385.83;29.17;;;;;;;2.84;70.14;100755.31;10389607;28;20053;-68
2021/11/11 21:18:42;;;;;;;753.60;45.70;;;;;;;3.03;69.46;100735.16;10385645;28;20077;-68
2021/11/11 21:23:44;;;;;;;278.75;28.05;;;;;;;3.15;69.53;100729.84;10386430;28;20667;-68
2021/11/11 21:28:49;;;;;;;248.38;24.92;;;;;;;3.20;69.09;100724.56;10384729;28;20051;-68
2021/11/11 21:34:02;;;;;;;532.25;32.80;;;;;;;2.97;68.82;100714.59;10385765;28;20509;-67
2021/11/11 21:39:13;;;;;;;536.35;27.67;;;;;;;2.70;69.33;100715.88;10385477;28;20387;-67
2021/11/11 21:44:19;;;;;;;435.10;32.38;;;;;;;2.63;69.63;100714.28;10383086;28;20136;-67
2021/11/11 21:49:23;;;;;;;475.13;27.90;;;;;;;2.54;69.52;100718.75;10385128;28;20053;-68
2021/11/11 21:54:31;;;;;;;502.60;30.20;;;;;;;2.55;69.60;100726.47;10385967;28;20059;-68
2021/11/11 21:59:49;;;;;;;366.08;25.98;;;;;;;2.76;69.51;100728.75;10383174;28;20045;-68
2021/11/11 22:36:26;;;;;;;647.55;40.25;;;;;;;2.43;69.30;100703.41;10385518;28;20514;-68
2021/11/11 22:41:32;;;;;;;300.85;28.15;;;;;;;2.35;69.76;100697.50;10382774;28;20512;-68
2021/11/11 22:46:34;;;;;;;303.52;26.45;;;;;;;2.25;69.67;100695.06;10384785;28;20067;-67
2021/11/11 22:51:36;;;;;;;279.60;21.45;;;;;;;2.31;69.67;100695.84;10383803;28;20045;-68
2021/11/11 22:56:48;;;;;;;308.23;24.42;;;;;;;2.14;69.54;100692.63;10381797;28;20056;-68
2021/11/11 23:02:07;;;;;;;426.42;29.67;;;;;;;2.17;69.90;100690.03;10383345;28;20259;-67
2021/11/11 23:33:19;;;;;;;441.38;33.70;;;;;;;2.21;69.62;100660.72;10381748;28;20064;-67
2021/11/11 23:38:21;;;;;;;609.45;36.88;;;;;;;2.16;69.46;100654.75;10383225;28;20064;-67
2021/11/11 23:43:24;;;;;;;516.83;34.33;;;;;;;2.11;69.52;100638.50;10381924;28;20235;-68
2021/11/11 23:48:28;;;;;;;446.15;27.92;;;;;;;2.00;69.56;100638.66;10379411;28;20111;-68
